Time;durP1;ratioP1;P1;durP2;ratioP2;P2;SDS_P1;SDS_P2;PMS_P1;PMS_P2;Temp;Humidity;BMP_temperature;BMP_pressure;BME280_temperature;BME280_humidity;BME280_pressure;Samples;Min_cycle;Max_cycle;Signal;HPM_P1;HPM_P2
2022/06/25 00:06:19;;;;;;;;;;;;;;;;;;;;;
2022/06/25 00:43:48;;;;;;;;;;;;;;;;;;4881385;23;19932;-90
2022/06/25 00:46:14;;;;;;;;;;;;;;;;;;4819111;29;19928;-89
2022/06/25 00:49:04;;;;;;;;;;;;;;;;;;4818264;29;20131;-90
2022/06/25 00:51:32;;;;;;;;;;;;;;;;;;4837674;29;19924;-90
2022/06/25 00:54:01;;;;;;;;;;;;;;;;;;4820725;29;19955;-90
2022/06/25 00:56:30;;;;;;;;;;;;;;;;;;4823504;29;19932;-90
2022/06/25 00:58:56;;;;;;;;;;;;;;;;;;4818050;29;19941;-90
2022/06/25 01:01:35;;;;;;;;;;;;;;;;;;;;;
2022/06/25 01:04:12;;;;;;;;;;;;;;;;;;4838080;29;19947;-90
2022/06/25 01:06:52;;;;;;;;;;;;;;;;;;4820953;29;19924;-90
2022/06/25 01:09:21;;;;;;;;;;;;;;;;;;4838135;29;20355;-90
2022/06/25 01:11:58;;;;;;;;;;;;;;;;;;4819341;29;19940;-90
2022/06/25 01:14:24;;;;;;;;;;;;;;;;;;4832876;29;19931;-90
2022/06/25 01:16:56;;;;;;;;;;;;;;;;;;4818543;29;20476;-91
2022/06/25 01:19:22;;;;;;;;;;;;;;;;;;4818878;29;19932;-90
2022/06/25 01:21:51;;;;;;;;;;;;;;;;;;4829123;29;19933;-91
2022/06/25 01:24:19;;;;;;;;;;;;;;;;;;4822402;29;19935;-91
2022/06/25 01:26:48;;;;;;;;;;;;;;;;;;4820826;29;19928;-90
2022/06/25 01:29:20;;;;;;;;;;;;;;;;;;4825310;29;19939;-90
2022/06/25 01:32:08;;;;;;;;;;;;;;;;;;4835669;29;19953;-90
2022/06/25 01:34:37;;;;;;;;;;;;;;;;;;4820661;29;19939;-90
2022/06/25 01:37:15;;;;;;;;;;;;;;;;;;4835267;29;20032;-90
2022/06/25 01:39:52;;;;;;;;;;;;;;;;;;4832341;29;21308;-90
2022/06/25 01:45:14;;;;;;;;;;;;;;;;;;4838070;29;20392;-90
2022/06/25 01:47:46;;;;;;;;;;;;;;;;;;4817486;29;20797;-90
2022/06/25 01:50:19;;;;;;;;;;;;;;;;;;4841252;29;20298;-90
2022/06/25 01:52:51;;;;;;;;;;;;;;;;;;4821820;29;20695;-89
2022/06/25 01:55:19;;;;;;;;;;;;;;;;;;4833708;29;20337;-90
2022/06/25 02:00:41;;;;;;;;;;;;;;;;;;4849984;29;20022;-90
2022/06/25 02:03:15;;;;;;;;;;;;;;;;;;4820848;29;19986;-90
2022/06/25 02:08:28;;;;;;;;;;;;;;;;;;4837368;29;19924;-89
2022/06/25 02:10:57;;;;;;;;;;;;;;;;;;4816357;29;19932;-90
2022/06/25 02:13:32;;;;;;;;;;;;;;;;;;4838366;29;19939;-90
2022/06/25 02:16:11;;;;;;;;;;;;;;;;;;4822874;29;19936;-91
2022/06/25 02:18:37;;;;;;;;;;;;;;;;;;4832552;29;20027;-90
2022/06/25 02:21:09;;;;;;;;;;;;;;;;;;4817889;29;19938;-90
2022/06/25 02:23:35;;;;;;;;;;;;;;;;;;4837107;29;20165;-90
2022/06/25 02:26:05;;;;;;;;;;;;;;;;;;4820715;29;20064;-90
2022/06/25 02:28:31;;;;;;;;;;;;;;;;;;4820430;29;19932;-91
2022/06/25 02:30:57;;;;;;;;;;;;;;;;;;4815612;29;19988;-91
2022/06/25 02:33:43;;;;;;;;;;;;;;;;;;4837388;29;20014;-89
2022/06/25 02:36:15;;;;;;;;;;;;;;;;;;4822760;29;19974;-90
2022/06/25 02:38:47;;;;;;;;;;;;;;;;;;4819073;29;20419;-91
2022/06/25 02:41:22;;;;;;;;;;;;;;;;;;4819143;29;19950;-91
2022/06/25 02:43:51;;;;;;;;;;;;;;;;;;4815822;29;20019;-90
2022/06/25 02:46:20;;;;;;;;;;;;;;;;;;4830871;29;20411;-90
2022/06/25 02:48:54;;;;;;;;;;;;;;;;;;4817895;29;20022;-89
2022/06/25 02:51:23;;;;;;;;;;;;;;;;;;4836998;29;20328;-90
2022/06/25 02:54:10;;;;;;;;;;;;;;;;;;4836292;29;20022;-90
2022/06/25 02:59:22;;;;;;;;;;;;;;;;;;4839852;29;19935;-90
2022/06/25 03:01:55;;;;;;;;;;;;;;;;;;4834586;29;19943;-90
2022/06/25 03:07:23;;;;;;;;;;;;;;;;;;4839589;29;19928;-90
2022/06/25 03:09:52;;;;;;;;;;;;;;;;;;4821920;29;20494;-90
2022/06/25 03:12:23;;;;;;;;;;;;;;;;;;4824354;29;19936;-90
2022/06/25 03:15:05;;;;;;;;;;;;;;;;;;4851288;29;19981;-90
2022/06/25 03:17:37;;;;;;;;;;;;;;;;;;4839344;29;19932;-90
2022/06/25 03:20:06;;;;;;;;;;;;;;;;;;4823662;29;19940;-91
2022/06/25 03:22:34;;;;;;;;;;;;;;;;;;4838785;29;19936;-90
2022/06/25 03:25:18;;;;;;;;;;;;;;;;;;4838974;29;19972;-90
2022/06/25 03:27:52;;;;;;;;;;;;;;;;;;4825997;29;20406;-90
2022/06/25 03:30:19;;;;;;;;;;;;;;;;;;4829010;29;19932;-90
2022/06/25 03:32:45;;;;;;;;;;;;;;;;;;4825156;29;19932;-89
2022/06/25 03:35:29;;;;;;;;;;;;;;;;;;4841245;29;19932;-90
2022/06/25 03:38:05;;;;;;;;;;;;;;;;;;4826038;29;20384;-90
2022/06/25 03:40:34;;;;;;;;;;;;;;;;;;4826673;29;20386;-91
2022/06/25 03:43:32;;;;;;;;;;;;;;;;;;4836507;29;20415;-91
2022/06/25 03:46:06;;;;;;;;;;;;;;;;;;4836171;29;20328;-91
2022/06/25 03:48:44;;;;;;;;;;;;;;;;;;4835375;29;19932;-90
2022/06/25 03:51:31;;;;;;;;;;;;;;;;;;4836741;29;20375;-90
2022/06/25 03:54:06;;;;;;;;;;;;;;;;;;4820958;29;20089;-90
2022/06/25 03:56:32;;;;;;;;;;;;;;;;;;4841262;29;20420;-90
2022/06/25 03:58:58;;;;;;;;;;;;;;;;;;4823434;29;20440;-90
2022/06/25 04:01:27;;;;;;;;;;;;;;;;;;4825474;29;19924;-90
2022/06/25 04:03:56;;;;;;;;;;;;;;;;;;4820379;29;19943;-91
2022/06/25 04:06:25;;;;;;;;;;;;;;;;;;4822450;29;20054;-90
2022/06/25 04:08:56;;;;;;;;;;;;;;;;;;4835398;29;19932;-91
2022/06/25 04:11:22;;;;;;;;;;;;;;;;;;4820904;29;20058;-90
2022/06/25 04:13:57;;;;;;;;;;;;;;;;;;4821023;29;20450;-90
2022/06/25 04:16:26;;;;;;;;;;;;;;;;;;4825154;29;20677;-91
2022/06/25 04:18:58;;;;;;;;;;;;;;;;;;4819923;29;19924;-90
2022/06/25 04:21:26;;;;;;;;;;;;;;;;;;4824743;29;20546;-90
2022/06/25 04:23:56;;;;;;;;;;;;;;;;;;4818119;29;19932;-90
2022/06/25 04:26:27;;;;;;;;;;;;;;;;;;4826094;29;20012;-90
2022/06/25 04:29:08;;;;;;;;;;;;;;;;;;4820569;29;19932;-90
2022/06/25 04:31:34;;;;;;;;;;;;;;;;;;4835366;29;19928;-91
2022/06/25 04:34:00;;;;;;;;;;;;;;;;;;4823049;29;19932;-90
2022/06/25 04:36:37;;;;;;;;;;;;;;;;;;4819831;29;20035;-91
2022/06/25 04:39:06;;;;;;;;;;;;;;;;;;4820717;29;20307;-90
2022/06/25 04:41:32;;;;;;;;;;;;;;;;;;4837384;29;20011;-91
2022/06/25 04:44:01;;;;;;;;;;;;;;;;;;4822049;29;20048;-90
2022/06/25 04:46:38;;;;;;;;;;;;;;;;;;4825118;29;19984;-91
2022/06/25 04:49:06;;;;;;;;;;;;;;;;;;4819245;29;20004;-90
2022/06/25 04:51:38;;;;;;;;;;;;;;;;;;4819031;29;19989;-90
2022/06/25 04:54:07;;;;;;;;;;;;;;;;;;4834890;29;20440;-90
2022/06/25 04:56:36;;;;;;;;;;;;;;;;;;4820421;29;20495;-91
2022/06/25 04:59:08;;;;;;;;;;;;;;;;;;4841171;29;19932;-90
2022/06/25 05:01:39;;;;;;;;;;;;;;;;;;4834329;29;20016;-91
2022/06/25 05:04:11;;;;;;;;;;;;;;;;;;4825679;29;19971;-91
2022/06/25 05:06:40;;;;;;;;;;;;;;;;;;4832444;29;19931;-91
2022/06/25 05:09:09;;;;;;;;;;;;;;;;;;4822805;29;20448;-91
2022/06/25 05:11:42;;;;;;;;;;;;;;;;;;4819931;29;19932;-91
2022/06/25 05:14:10;;;;;;;;;;;;;;;;;;4819734;29;20014;-92
2022/06/25 05:16:42;;;;;;;;;;;;;;;;;;4816763;29;20312;-91
2022/06/25 05:19:23;;;;;;;;;;;;;;;;;;4821811;29;19980;-90
2022/06/25 05:21:49;;;;;;;;;;;;;;;;;;4819448;29;19980;-91
2022/06/25 05:24:48;;;;;;;;;;;;;;;;;;4834084;29;19932;-91
2022/06/25 05:27:35;;;;;;;;;;;;;;;;;;4819304;29;20296;-91
2022/06/25 05:30:01;;;;;;;;;;;;;;;;;;4822557;29;19928;-90
2022/06/25 05:32:32;;;;;;;;;;;;;;;;;;4820550;29;20003;-91
2022/06/25 05:34:58;;;;;;;;;;;;;;;;;;4819474;29;19928;-92
2022/06/25 05:37:36;;;;;;;;;;;;;;;;;;4823893;29;19975;-91
2022/06/25 05:40:02;;;;;;;;;;;;;;;;;;4818083;29;20089;-90
2022/06/25 05:42:28;;;;;;;;;;;;;;;;;;4823033;29;19939;-92
2022/06/25 05:45:03;;;;;;;;;;;;;;;;;;4830008;29;19929;-92
2022/06/25 05:47:48;;;;;;;;;;;;;;;;;;4823648;29;19940;-92
2022/06/25 05:50:14;;;;;;;;;;;;;;;;;;4820519;29;19967;-91
2022/06/25 05:53:01;;;;;;;;;;;;;;;;;;4830389;29;19948;-91
2022/06/25 05:55:38;;;;;;;;;;;;;;;;;;4821071;29;19932;-91
2022/06/25 05:58:16;;;;;;;;;;;;;;;;;;4821364;29;19955;-91
2022/06/25 06:00:48;;;;;;;;;;;;;;;;;;4817258;29;19996;-91
2022/06/25 06:03:14;;;;;;;;;;;;;;;;;;4827623;29;19970;-91
2022/06/25 06:05:45;;;;;;;;;;;;;;;;;;4825138;29;19936;-92
2022/06/25 06:11:05;;;;;;;;;;;;;;;;;;4835999;29;20327;-90
2022/06/25 06:13:34;;;;;;;;;;;;;;;;;;4825871;29;19924;-90
2022/06/25 06:16:06;;;;;;;;;;;;;;;;;;4845267;29;19932;-90
2022/06/25 06:18:35;;;;;;;;;;;;;;;;;;4837362;29;19932;-92
2022/06/25 06:21:06;;;;;;;;;;;;;;;;;;4822745;29;19940;-91
2022/06/25 06:23:35;;;;;;;;;;;;;;;;;;4825298;29;20372;-91
2022/06/25 06:26:45;;;;;;;;;;;;;;;;;;;;;
2022/06/25 06:29:22;;;;;;;;;;;;;;;;;;4838078;29;19983;-92
2022/06/25 06:31:53;;;;;;;;;;;;;;;;;;4839009;29;20311;-91
2022/06/25 06:34:25;;;;;;;;;;;;;;;;;;4826229;29;19928;-90
2022/06/25 06:46:24;;;;;;;;;;;;;;;;;;4734437;30;19941;-92
2022/06/25 06:48:56;;;;;;;;;;;;;;;;;;4759129;29;19968;-93
2022/06/25 06:51:25;;;;;;;;;;;;;;;;;;4772795;29;19925;-91
2022/06/25 06:53:57;;;;;;;;;;;;;;;;;;4769448;29;20481;-91
2022/06/25 06:56:32;;;;;;;;;;;;;;;;;;4767542;29;19962;-91
2022/06/25 06:59:01;;;;;;;;;;;;;;;;;;4790424;29;19928;-91
2022/06/25 07:01:29;;;;;;;;;;;;;;;;;;4792002;29;19925;-92
2022/06/25 07:04:08;;;;;;;;;;;;;;;;;;4805977;29;19937;-92
2022/06/25 07:06:42;;;;;;;;;;;;;;;;;;4792952;29;19933;-92
2022/06/25 07:09:09;;;;;;;;;;;;;;;;;;4790007;29;19929;-91
2022/06/25 07:11:36;;;;;;;;;;;;;;;;;;4789434;29;19929;-91
2022/06/25 07:14:04;;;;;;;;;;;;;;;;;;4789508;29;19984;-91
2022/06/25 07:16:30;;;;;;;;;;;;;;;;;;4792984;29;20010;-92
2022/06/25 07:19:04;;;;;;;;;;;;;;;;;;4784652;29;20032;-91
2022/06/25 07:21:37;;;;;;;;;;;;;;;;;;4839781;29;20390;-90
2022/06/25 07:24:12;;;;;;;;;;;;;;;;;;4825581;29;19939;-92
2022/06/25 07:26:38;;;;;;;;;;;;;;;;;;4823400;29;19939;-91
2022/06/25 07:29:24;;;;;;;;;;;;;;;;;;4826942;29;19931;-91
2022/06/25 07:31:58;;;;;;;;;;;;;;;;;;4826833;29;21592;-91
2022/06/25 07:34:42;;;;;;;;;;;;;;;;;;4844687;29;19933;-93
2022/06/25 07:37:14;;;;;;;;;;;;;;;;;;4842647;29;20295;-93
2022/06/25 07:39:46;;;;;;;;;;;;;;;;;;4840042;29;19928;-92
2022/06/25 07:42:14;;;;;;;;;;;;;;;;;;4834820;29;19935;-92
2022/06/25 07:44:43;;;;;;;;;;;;;;;;;;4834175;29;19945;-91
2022/06/25 07:47:12;;;;;;;;;;;;;;;;;;4833700;29;19991;-93
2022/06/25 07:52:41;;;;;;;;;;;;;;;;;;4850873;29;20007;-91
2022/06/25 07:55:20;;;;;;;;;;;;;;;;;;4837642;29;19992;-93
2022/06/25 07:57:46;;;;;;;;;;;;;;;;;;4834793;29;19934;-90
2022/06/25 08:03:19;;;;;;;;;;;;;;;;;;;;;
2022/06/25 08:05:56;;;;;;;;;;;;;;;;;;4843366;29;19932;-95
2022/06/25 08:08:34;;;;;;;;;;;;;;;;;;4830927;29;19932;-95
2022/06/25 08:11:11;;;;;;;;;;;;;;;;;;4843674;29;20466;-94
2022/06/25 08:13:54;;;;;;;;;;;;;;;;;;4841213;29;19935;-91
2022/06/25 08:16:37;;;;;;;;;;;;;;;;;;4845833;29;19989;-92
2022/06/25 08:22:19;;;;;;;;;;;;;;;;;;4811481;29;19935;-93
2022/06/25 08:24:45;;;;;;;;;;;;;;;;;;4825002;29;19943;-92
2022/06/25 08:27:17;;;;;;;;;;;;;;;;;;4830129;29;19928;-92
2022/06/25 08:29:46;;;;;;;;;;;;;;;;;;4831943;29;20001;-95
2022/06/25 08:35:15;;;;;;;;;;;;;;;;;;4820887;29;20004;-92
2022/06/25 08:37:53;;;;;;;;;;;;;;;;;;4788603;29;19929;-92
2022/06/25 08:40:19;;;;;;;;;;;;;;;;;;4801233;29;20426;-95
2022/06/25 08:42:48;;;;;;;;;;;;;;;;;;4786696;29;19937;-92
2022/06/25 08:45:15;;;;;;;;;;;;;;;;;;4784988;29;19933;-93
2022/06/25 08:47:51;;;;;;;;;;;;;;;;;;4786510;29;19925;-93
2022/06/25 08:50:42;;;;;;;;;;;;;;;;;;4790064;29;20331;-93
2022/06/25 08:53:11;;;;;;;;;;;;;;;;;;4801028;29;20002;-92
2022/06/25 08:55:55;;;;;;;;;;;;;;;;;;4784264;29;19929;-92
2022/06/25 08:58:21;;;;;;;;;;;;;;;;;;4795642;29;20297;-92
2022/06/25 09:00:56;;;;;;;;;;;;;;;;;;4798842;29;19964;-92
2022/06/25 09:03:39;;;;;;;;;;;;;;;;;;4819258;29;20426;-92
2022/06/25 09:06:10;;;;;;;;;;;;;;;;;;4852048;29;19924;-94
2022/06/25 09:08:42;;;;;;;;;;;;;;;;;;4838113;29;19949;-93
2022/06/25 09:11:13;;;;;;;;;;;;;;;;;;4838188;29;20372;-91
2022/06/25 09:14:03;;;;;;;;;;;;;;;;;;4839359;29;19924;-93
2022/06/25 09:16:35;;;;;;;;;;;;;;;;;;4835710;29;20593;-94
2022/06/25 09:19:08;;;;;;;;;;;;;;;;;;4836677;29;19924;-91
2022/06/25 09:21:37;;;;;;;;;;;;;;;;;;4858376;29;19960;-94
2022/06/25 09:24:12;;;;;;;;;;;;;;;;;;4851835;29;19938;-92
2022/06/25 09:26:52;;;;;;;;;;;;;;;;;;4836291;29;19931;-92
2022/06/25 09:29:18;;;;;;;;;;;;;;;;;;4834796;29;20453;-92
2022/06/25 09:31:47;;;;;;;;;;;;;;;;;;4837289;29;19935;-93
2022/06/25 09:34:16;;;;;;;;;;;;;;;;;;4838214;29;19932;-92
2022/06/25 09:36:46;;;;;;;;;;;;;;;;;;4832001;29;19935;-92
2022/06/25 09:39:14;;;;;;;;;;;;;;;;;;4839038;29;19982;-92
2022/06/25 09:41:43;;;;;;;;;;;;;;;;;;4833877;29;20277;-92
2022/06/25 09:44:09;;;;;;;;;;;;;;;;;;4834260;29;20026;-92
2022/06/25 09:46:44;;;;;;;;;;;;;;;;;;4837435;29;19959;-93
2022/06/25 09:49:19;;;;;;;;;;;;;;;;;;4836870;29;20290;-93
2022/06/25 09:52:02;;;;;;;;;;;;;;;;;;4834626;29;20868;-92
2022/06/25 09:54:31;;;;;;;;;;;;;;;;;;4835081;29;20810;-92
2022/06/25 09:56:57;;;;;;;;;;;;;;;;;;4833064;29;20399;-91
2022/06/25 09:59:23;;;;;;;;;;;;;;;;;;4837290;29;19924;-92
2022/06/25 10:02:01;;;;;;;;;;;;;;;;;;4847143;29;19932;-92
2022/06/25 10:04:30;;;;;;;;;;;;;;;;;;4833400;29;19932;-92
2022/06/25 10:07:05;;;;;;;;;;;;;;;;;;4836095;29;19946;-92
2022/06/25 10:09:31;;;;;;;;;;;;;;;;;;4835573;29;19931;-92
2022/06/25 10:12:03;;;;;;;;;;;;;;;;;;4850106;29;19985;-91
2022/06/25 10:14:32;;;;;;;;;;;;;;;;;;4834090;29;20367;-93
2022/06/25 10:17:04;;;;;;;;;;;;;;;;;;4861147;29;19932;-91
2022/06/25 10:19:32;;;;;;;;;;;;;;;;;;4834750;29;19928;-93
2022/06/25 10:22:01;;;;;;;;;;;;;;;;;;4845703;29;19932;-93
2022/06/25 10:24:36;;;;;;;;;;;;;;;;;;4835332;29;19928;-90
2022/06/25 10:27:02;;;;;;;;;;;;;;;;;;4834015;29;19924;-93
2022/06/25 10:29:28;;;;;;;;;;;;;;;;;;4834972;29;19931;-92
2022/06/25 10:32:03;;;;;;;;;;;;;;;;;;4841440;29;19927;-92
2022/06/25 10:34:30;;;;;;;;;;;;;;;;;;4837618;29;20452;-92
2022/06/25 10:36:58;;;;;;;;;;;;;;;;;;4831309;29;19932;-92
2022/06/25 10:39:27;;;;;;;;;;;;;;;;;;4836822;29;19924;-93
2022/06/25 10:44:54;;;;;;;;;;;;;;;;;;4866938;29;19928;-94
2022/06/25 10:47:32;;;;;;;;;;;;;;;;;;4849941;29;19935;-94
2022/06/25 10:50:01;;;;;;;;;;;;;;;;;;4836415;29;20328;-91
2022/06/25 10:52:34;;;;;;;;;;;;;;;;;;4835107;29;19935;-94
2022/06/25 10:57:55;;;;;;;;;;;;;;;;;;4847262;29;19931;-93
2022/06/25 11:00:23;;;;;;;;;;;;;;;;;;4838473;29;19956;-91
2022/06/25 11:03:04;;;;;;;;;;;;;;;;;;4853172;29;20057;-93
2022/06/25 11:05:42;;;;;;;;;;;;;;;;;;4833002;29;20364;-94
2022/06/25 11:08:08;;;;;;;;;;;;;;;;;;4834562;29;20218;-94
2022/06/25 11:13:28;;;;;;;;;;;;;;;;;;4844004;29;20071;-93
2022/06/25 11:15:55;;;;;;;;;;;;;;;;;;4844005;29;20066;-93
2022/06/25 11:18:24;;;;;;;;;;;;;;;;;;4838539;29;19928;-92
2022/06/25 11:20:56;;;;;;;;;;;;;;;;;;4830760;29;20349;-93
2022/06/25 11:23:34;;;;;;;;;;;;;;;;;;4848432;29;19952;-92
2022/06/25 11:28:57;;;;;;;;;;;;;;;;;;4843700;29;19963;-91
2022/06/25 11:31:26;;;;;;;;;;;;;;;;;;4848142;29;20376;-92
2022/06/25 11:33:55;;;;;;;;;;;;;;;;;;4826951;29;22195;-93
2022/06/25 11:36:21;;;;;;;;;;;;;;;;;;4834041;29;19924;-94
2022/06/25 11:39:05;;;;;;;;;;;;;;;;;;4848236;29;19966;-93
2022/06/25 11:41:56;;;;;;;;;;;;;;;;;;;;;
2022/06/25 11:44:44;;;;;;;;;;;;;;;;;;4851778;29;19928;-94
2022/06/25 11:47:16;;;;;;;;;;;;;;;;;;4851817;29;19936;-93
2022/06/25 11:49:53;;;;;;;;;;;;;;;;;;;;;
2022/06/25 11:55:21;;;;;;;;;;;;;;;;;;4839319;29;20013;-91
2022/06/25 11:57:47;;;;;;;;;;;;;;;;;;4817717;29;19932;-92
2022/06/25 12:00:16;;;;;;;;;;;;;;;;;;4823749;29;19928;-92
2022/06/25 12:02:42;;;;;;;;;;;;;;;;;;4835965;29;19928;-94
2022/06/25 12:05:14;;;;;;;;;;;;;;;;;;4839048;29;19932;-95
2022/06/25 12:07:43;;;;;;;;;;;;;;;;;;4824652;29;20472;-93
2022/06/25 12:10:45;;;;;;;;;;;;;;;;;;4849053;29;19931;-94
2022/06/25 12:13:16;;;;;;;;;;;;;;;;;;4854038;29;20292;-93
2022/06/25 12:16:13;;;;;;;;;;;;;;;;;;4838795;29;19933;-94
2022/06/25 12:18:44;;;;;;;;;;;;;;;;;;4846125;29;19932;-93
2022/06/25 12:21:27;;;;;;;;;;;;;;;;;;4859893;29;19932;-93
2022/06/25 12:24:09;;;;;;;;;;;;;;;;;;4812600;29;20364;-92
2022/06/25 12:29:45;;;;;;;;;;;;;;;;;;4862418;29;19932;-93
2022/06/25 12:32:15;;;;;;;;;;;;;;;;;;4862061;29;19928;-96
2022/06/25 12:35:12;;;;;;;;;;;;;;;;;;4829620;29;19969;-93
2022/06/25 12:37:50;;;;;;;;;;;;;;;;;;4808362;29;19925;-94
2022/06/25 12:40:26;;;;;;;;;;;;;;;;;;4818406;29;19976;-93
2022/06/25 12:46:08;;;;;;;;;;;;;;;;;;4801701;29;19972;-93
2022/06/25 12:48:39;;;;;;;;;;;;;;;;;;4828117;29;19936;-92
2022/06/25 12:51:18;;;;;;;;;;;;;;;;;;4848262;29;20377;-93
2022/06/25 12:53:47;;;;;;;;;;;;;;;;;;4818111;29;20012;-93
2022/06/25 12:56:18;;;;;;;;;;;;;;;;;;4825095;29;19940;-92
2022/06/25 12:58:51;;;;;;;;;;;;;;;;;;4816520;29;19957;-94
2022/06/25 13:01:37;;;;;;;;;;;;;;;;;;;;;
2022/06/25 13:04:04;;;;;;;;;;;;;;;;;;4800144;29;19933;-94
2022/06/25 13:06:30;;;;;;;;;;;;;;;;;;4786145;29;19936;-95
2022/06/25 13:09:06;;;;;;;;;;;;;;;;;;4794079;29;19929;-93
2022/06/25 13:11:42;;;;;;;;;;;;;;;;;;4797527;29;19925;-94
2022/06/25 13:14:14;;;;;;;;;;;;;;;;;;4792462;29;19941;-90
2022/06/25 13:16:40;;;;;;;;;;;;;;;;;;4783905;29;20000;-93
2022/06/25 13:19:17;;;;;;;;;;;;;;;;;;4769684;29;20421;-93
2022/06/25 13:21:58;;;;;;;;;;;;;;;;;;4796786;29;19977;-93
2022/06/25 13:25:07;;;;;;;;;;;;;;;;;;;;;
2022/06/25 13:27:36;;;;;;;;;;;;;;;;;;4791773;29;19944;-94
2022/06/25 13:30:04;;;;;;;;;;;;;;;;;;4773271;29;19929;-90
2022/06/25 13:35:26;;;;;;;;;;;;;;;;;;4829259;29;19924;-94
2022/06/25 13:37:58;;;;;;;;;;;;;;;;;;4785529;29;19924;-93
2022/06/25 13:40:32;;;;;;;;;;;;;;;;;;4801895;29;20399;-95
2022/06/25 13:43:06;;;;;;;;;;;;;;;;;;4781118;29;19932;-96
2022/06/25 13:54:37;;;;;;;;;;;;;;;;;;;;;
2022/06/25 14:22:13;;;;;;;;;;;;;;;;;;;;;
2022/06/25 14:50:10;;;;;;;;;;;;;;;;;;5048534;23;20311;-83
2022/06/25 14:52:59;;;;;;;;;;;;;;;;;;4796121;29;19983;-83
2022/06/25 14:55:54;;;;;;;;;;;;;;;;;;;;;
2022/06/25 15:25:41;;;;;;;;;;;;;;;;;;;;;
2022/06/25 15:28:44;;;;;;;;;;;;;;;;;;4686754;30;20019;-83
2022/06/25 15:31:42;;;;;;;;;;;;;;;;;;;;;
2022/06/25 15:34:30;;;;;;;;;;;;;;;;;;4800092;29;19935;-83
2022/06/25 15:46:09;;;;;;;;;;;;;;;;;;4747885;30;20020;-83
2022/06/25 15:51:47;;;;;;;;;;;;;;;;;;4738218;30;20444;-86
2022/06/25 15:54:13;;;;;;;;;;;;;;;;;;4726500;29;19929;-86
2022/06/25 15:56:39;;;;;;;;;;;;;;;;;;4745220;29;20020;-86
2022/06/25 16:01:50;;;;;;;;;;;;;;;;;;4754121;29;19941;-88
2022/06/25 16:04:16;;;;;;;;;;;;;;;;;;4743289;29;20949;-87
2022/06/25 16:06:42;;;;;;;;;;;;;;;;;;4759715;29;20047;-87
2022/06/25 16:09:08;;;;;;;;;;;;;;;;;;4780884;29;20304;-87
2022/06/25 16:11:34;;;;;;;;;;;;;;;;;;4816262;29;19934;-86
2022/06/25 16:14:01;;;;;;;;;;;;;;;;;;4792903;29;19938;-87
2022/06/25 16:16:27;;;;;;;;;;;;;;;;;;4803791;29;19938;-86
2022/06/25 16:18:53;;;;;;;;;;;;;;;;;;4815327;29;19932;-89
2022/06/25 16:21:19;;;;;;;;;;;;;;;;;;4824945;29;20475;-87
2022/06/25 16:23:45;;;;;;;;;;;;;;;;;;4824829;29;19937;-86
2022/06/25 16:26:11;;;;;;;;;;;;;;;;;;4825360;29;20404;-88
2022/06/25 16:28:37;;;;;;;;;;;;;;;;;;4834070;29;20288;-87
2022/06/25 16:31:06;;;;;;;;;;;;;;;;;;4826234;29;19939;-87
2022/06/25 16:33:32;;;;;;;;;;;;;;;;;;4837930;29;19965;-88
2022/06/25 16:35:58;;;;;;;;;;;;;;;;;;4831373;29;19927;-88
2022/06/25 16:38:24;;;;;;;;;;;;;;;;;;4839104;29;20292;-87
2022/06/25 16:40:50;;;;;;;;;;;;;;;;;;4836448;29;19928;-88
2022/06/25 16:43:16;;;;;;;;;;;;;;;;;;4819020;29;19936;-87
2022/06/25 16:45:43;;;;;;;;;;;;;;;;;;4832157;29;20003;-88
2022/06/25 16:48:09;;;;;;;;;;;;;;;;;;4819629;29;19967;-88
2022/06/25 16:50:35;;;;;;;;;;;;;;;;;;4836883;29;19932;-87
2022/06/25 16:53:01;;;;;;;;;;;;;;;;;;4836409;29;19982;-87
2022/06/25 16:55:27;;;;;;;;;;;;;;;;;;4839981;29;20014;-87
2022/06/25 16:57:55;;;;;;;;;;;;;;;;;;4836075;29;20388;-87
2022/06/25 17:00:21;;;;;;;;;;;;;;;;;;4825655;29;19932;-87
2022/06/25 17:02:47;;;;;;;;;;;;;;;;;;4839029;29;20304;-87
2022/06/25 17:05:13;;;;;;;;;;;;;;;;;;4848593;29;19939;-87
2022/06/25 17:07:45;;;;;;;;;;;;;;;;;;4831995;29;19932;-87
2022/06/25 17:10:11;;;;;;;;;;;;;;;;;;4834569;29;19932;-88
2022/06/25 17:12:37;;;;;;;;;;;;;;;;;;4817204;29;20830;-87
2022/06/25 17:15:03;;;;;;;;;;;;;;;;;;4822319;29;19933;-87
2022/06/25 17:17:29;;;;;;;;;;;;;;;;;;4823050;29;20407;-88
2022/06/25 17:19:55;;;;;;;;;;;;;;;;;;4833037;29;19932;-87
2022/06/25 17:22:21;;;;;;;;;;;;;;;;;;4837393;29;20087;-87
2022/06/25 17:24:46;;;;;;;;;;;;;;;;;;4818759;29;20076;-87
2022/06/25 17:27:12;;;;;;;;;;;;;;;;;;4850587;29;20495;-87
2022/06/25 17:29:39;;;;;;;;;;;;;;;;;;4833001;29;19988;-87
2022/06/25 17:32:05;;;;;;;;;;;;;;;;;;4842806;29;19938;-87
2022/06/25 17:34:30;;;;;;;;;;;;;;;;;;4838306;29;20287;-87
2022/06/25 17:36:56;;;;;;;;;;;;;;;;;;4827493;29;19935;-87
2022/06/25 17:39:22;;;;;;;;;;;;;;;;;;4826119;29;20257;-87
2022/06/25 17:41:48;;;;;;;;;;;;;;;;;;4819234;29;19936;-87
2022/06/25 17:44:14;;;;;;;;;;;;;;;;;;4830209;29;19936;-87
2022/06/25 17:46:40;;;;;;;;;;;;;;;;;;4832620;29;19928;-88
2022/06/25 17:49:06;;;;;;;;;;;;;;;;;;4831342;29;20039;-88
2022/06/25 17:51:32;;;;;;;;;;;;;;;;;;4821358;29;20372;-89
2022/06/25 17:53:58;;;;;;;;;;;;;;;;;;4814670;29;19939;-87
2022/06/25 17:56:24;;;;;;;;;;;;;;;;;;4848164;29;20768;-86
2022/06/25 17:58:50;;;;;;;;;;;;;;;;;;4831373;29;19932;-86
2022/06/25 18:01:16;;;;;;;;;;;;;;;;;;4830623;29;19934;-89
2022/06/25 18:03:42;;;;;;;;;;;;;;;;;;4813425;29;19932;-86
2022/06/25 18:06:08;;;;;;;;;;;;;;;;;;4811554;29;20603;-86
2022/06/25 18:08:34;;;;;;;;;;;;;;;;;;4815710;29;19932;-88
2022/06/25 18:11:16;;;;;;;;;;;;;;;;;;4832283;29;19935;-89
2022/06/25 18:13:46;;;;;;;;;;;;;;;;;;4814413;29;19939;-86
2022/06/25 18:16:12;;;;;;;;;;;;;;;;;;4821028;29;19971;-89
2022/06/25 18:18:38;;;;;;;;;;;;;;;;;;4815423;29;19928;-87
2022/06/25 18:21:04;;;;;;;;;;;;;;;;;;4821732;29;19935;-88
2022/06/25 18:23:30;;;;;;;;;;;;;;;;;;4837989;29;20008;-88
2022/06/25 18:25:56;;;;;;;;;;;;;;;;;;4828175;29;19958;-89
2022/06/25 18:28:28;;;;;;;;;;;;;;;;;;4831911;29;19928;-89
2022/06/25 18:31:00;;;;;;;;;;;;;;;;;;4831302;29;22084;-87
2022/06/25 18:33:26;;;;;;;;;;;;;;;;;;4836528;29;20273;-88
2022/06/25 18:35:52;;;;;;;;;;;;;;;;;;4829324;29;19931;-87
2022/06/25 18:38:21;;;;;;;;;;;;;;;;;;4805700;29;20067;-88
2022/06/25 18:40:46;;;;;;;;;;;;;;;;;;4843549;29;20359;-88
2022/06/25 18:43:12;;;;;;;;;;;;;;;;;;4834882;29;19936;-88
2022/06/25 18:45:41;;;;;;;;;;;;;;;;;;4817776;29;19928;-87
2022/06/25 18:48:13;;;;;;;;;;;;;;;;;;4818394;29;19928;-87
2022/06/25 18:50:39;;;;;;;;;;;;;;;;;;4814997;29;19960;-85
2022/06/25 18:53:23;;;;;;;;;;;;;;;;;;4818743;29;19939;-86
2022/06/25 18:55:52;;;;;;;;;;;;;;;;;;4814962;29;19924;-89
2022/06/25 18:58:35;;;;;;;;;;;;;;;;;;4820035;29;19973;-86
2022/06/25 19:01:02;;;;;;;;;;;;;;;;;;4830067;29;19935;-85
2022/06/25 19:03:34;;;;;;;;;;;;;;;;;;4813778;29;19932;-89
2022/06/25 19:06:00;;;;;;;;;;;;;;;;;;4817204;29;19956;-86
2022/06/25 19:08:40;;;;;;;;;;;;;;;;;;4816419;29;20004;-85
2022/06/25 19:11:06;;;;;;;;;;;;;;;;;;4818959;29;19997;-84
2022/06/25 19:13:39;;;;;;;;;;;;;;;;;;4847390;29;20285;-87
2022/06/25 19:16:27;;;;;;;;;;;;;;;;;;4835513;29;20343;-88
2022/06/25 19:19:01;;;;;;;;;;;;;;;;;;4830720;29;19932;-86
2022/06/25 19:21:37;;;;;;;;;;;;;;;;;;4816941;29;19932;-85
2022/06/25 19:24:08;;;;;;;;;;;;;;;;;;4837871;29;19928;-88
2022/06/25 19:26:37;;;;;;;;;;;;;;;;;;4831907;29;19949;-87
2022/06/25 19:29:03;;;;;;;;;;;;;;;;;;4816705;29;19939;-87
2022/06/25 19:31:33;;;;;;;;;;;;;;;;;;4835588;29;19976;-85
2022/06/25 19:34:01;;;;;;;;;;;;;;;;;;4827163;29;19932;-87
2022/06/25 19:36:43;;;;;;;;;;;;;;;;;;4821058;29;19936;-88
2022/06/25 19:39:10;;;;;;;;;;;;;;;;;;4825509;29;19932;-87
2022/06/25 19:41:36;;;;;;;;;;;;;;;;;;4855616;29;19935;-84
2022/06/25 19:44:04;;;;;;;;;;;;;;;;;;4853003;29;19932;-84
2022/06/25 19:46:30;;;;;;;;;;;;;;;;;;4820447;29;19924;-85
2022/06/25 19:48:56;;;;;;;;;;;;;;;;;;4831864;29;19935;-86
2022/06/25 19:51:25;;;;;;;;;;;;;;;;;;4836797;29;19936;-88
2022/06/25 19:53:51;;;;;;;;;;;;;;;;;;4818772;29;19939;-86
2022/06/25 19:56:17;;;;;;;;;;;;;;;;;;4820419;29;19975;-86
2022/06/25 19:58:56;;;;;;;;;;;;;;;;;;4823550;29;19932;-87
2022/06/25 20:04:42;;;;;;;;;;;;;;;;;;;;;
2022/06/25 20:07:19;;;;;;;;;;;;;;;;;;4835910;29;20566;-86
2022/06/25 20:09:48;;;;;;;;;;;;;;;;;;4817302;29;20018;-84
2022/06/25 20:12:37;;;;;;;;;;;;;;;;;;4836094;29;19932;-86
2022/06/25 20:15:03;;;;;;;;;;;;;;;;;;4836089;29;19928;-85
2022/06/25 20:17:31;;;;;;;;;;;;;;;;;;4836013;29;20023;-87
2022/06/25 20:20:02;;;;;;;;;;;;;;;;;;4834863;29;19935;-87
2022/06/25 20:22:31;;;;;;;;;;;;;;;;;;4825204;29;19928;-93
2022/06/25 20:25:16;;;;;;;;;;;;;;;;;;4816752;29;19928;-89
2022/06/25 20:27:45;;;;;;;;;;;;;;;;;;4833042;29;19936;-88
2022/06/25 20:30:26;;;;;;;;;;;;;;;;;;4837114;29;20337;-87
2022/06/25 20:32:58;;;;;;;;;;;;;;;;;;4831799;29;20403;-88
2022/06/25 20:35:37;;;;;;;;;;;;;;;;;;4819249;29;20071;-88
2022/06/25 20:38:03;;;;;;;;;;;;;;;;;;4821827;29;19928;-85
2022/06/25 20:40:29;;;;;;;;;;;;;;;;;;4836964;29;19924;-85
2022/06/25 20:43:01;;;;;;;;;;;;;;;;;;4816758;29;20115;-86
2022/06/25 20:45:35;;;;;;;;;;;;;;;;;;4834271;29;19924;-86
2022/06/25 22:11:03;;;;;;;;;;;;;;;;;;4657673;30;20018;-83
2022/06/25 22:23:46;;;;;;;;;;;;;;;;;;;;;
2022/06/25 22:49:17;;;;;;;;;;;;;;;;;;4717205;30;20016;-83
2022/06/25 23:23:33;;;;;;;;;;;;;;;;;;;;;
